sensor_id;sensor_type;location;lat;lon;timestamp;P1;durP1;ratioP1;P2;durP2;ratioP2
7166;SDS011;3625;51.762;14.320;2023-06-22T02:02:45;11.65;;;10.65;;
7166;SDS011;3625;51.762;14.320;2023-06-22T02:05:21;11.95;;;10.95;;
7166;SDS011;3625;51.762;14.320;2023-06-22T02:07:56;12.70;;;11.63;;
7166;SDS011;3625;51.762;14.320;2023-06-22T02:10:34;12.35;;;11.35;;
7166;SDS011;3625;51.762;14.320;2023-06-22T02:13:06;12.57;;;11.48;;
7166;SDS011;3625;51.762;14.320;2023-06-22T02:15:38;12.63;;;11.52;;
7166;SDS011;3625;51.762;14.320;2023-06-22T02:18:11;12.43;;;11.32;;
7166;SDS011;3625;51.762;14.320;2023-06-22T02:20:40;12.25;;;11.25;;
7166;SDS011;3625;51.762;14.320;2023-06-22T02:23:09;12.90;;;11.80;;
7166;SDS011;3625;51.762;14.320;2023-06-22T02:25:37;12.23;;;11.23;;
7166;SDS011;3625;51.762;14.320;2023-06-22T02:28:06;12.80;;;11.70;;
7166;SDS011;3625;51.762;14.320;2023-06-22T02:30:35;12.07;;;11.02;;
7166;SDS011;3625;51.762;14.320;2023-06-22T02:33:07;13.27;;;12.07;;
7166;SDS011;3625;51.762;14.320;2023-06-22T02:35:36;13.00;;;11.90;;
7166;SDS011;3625;51.762;14.320;2023-06-22T02:38:04;13.10;;;12.00;;
7166;SDS011;3625;51.762;14.320;2023-06-22T02:40:34;12.30;;;11.32;;
7166;SDS011;3625;51.762;14.320;2023-06-22T02:43:02;12.85;;;11.75;;
7166;SDS011;3625;51.762;14.320;2023-06-22T02:45:31;12.57;;;11.48;;
7166;SDS011;3625;51.762;14.320;2023-06-22T02:48:01;12.77;;;11.57;;
7166;SDS011;3625;51.762;14.320;2023-06-22T02:50:31;11.80;;;10.80;;
7166;SDS011;3625;51.762;14.320;2023-06-22T02:53:00;11.77;;;10.68;;
7166;SDS011;3625;51.762;14.320;2023-06-22T02:55:34;12.50;;;11.30;;
7166;SDS011;3625;51.762;14.320;2023-06-22T02:58:03;12.70;;;11.60;;
7166;SDS011;3625;51.762;14.320;2023-06-22T03:00:35;12.27;;;11.20;;
7166;SDS011;3625;51.762;14.320;2023-06-22T03:03:03;12.23;;;11.13;;
7166;SDS011;3625;51.762;14.320;2023-06-22T03:05:33;12.23;;;11.23;;
7166;SDS011;3625;51.762;14.320;2023-06-22T03:08:03;12.65;;;11.55;;
7166;SDS011;3625;51.762;14.320;2023-06-22T03:10:33;13.60;;;12.30;;
7166;SDS011;3625;51.762;14.320;2023-06-22T03:13:02;13.70;;;12.57;;
7166;SDS011;3625;51.762;14.320;2023-06-22T03:15:31;13.15;;;12.05;;
7166;SDS011;3625;51.762;14.320;2023-06-22T03:18:00;13.35;;;12.05;;
7166;SDS011;3625;51.762;14.320;2023-06-22T03:20:29;12.70;;;11.60;;
7166;SDS011;3625;51.762;14.320;2023-06-22T03:23:01;13.80;;;12.70;;
7166;SDS011;3625;51.762;14.320;2023-06-22T03:25:31;13.90;;;12.80;;
7166;SDS011;3625;51.762;14.320;2023-06-22T03:28:00;14.27;;;12.98;;
7166;SDS011;3625;51.762;14.320;2023-06-22T03:30:29;13.50;;;12.35;;
7166;SDS011;3625;51.762;14.320;2023-06-22T03:32:59;14.60;;;13.30;;
7166;SDS011;3625;51.762;14.320;2023-06-22T03:35:28;13.70;;;12.57;;
7166;SDS011;3625;51.762;14.320;2023-06-22T03:37:56;13.73;;;12.52;;
7166;SDS011;3625;51.762;14.320;2023-06-22T03:40:31;13.02;;;11.57;;
7166;SDS011;3625;51.762;14.320;2023-06-22T03:43:00;15.98;;;14.48;;
7166;SDS011;3625;51.762;14.320;2023-06-22T03:45:29;15.80;;;14.45;;
7166;SDS011;3625;51.762;14.320;2023-06-22T03:47:57;16.33;;;14.98;;
7166;SDS011;3625;51.762;14.320;2023-06-22T03:50:27;15.55;;;14.25;;
7166;SDS011;3625;51.762;14.320;2023-06-22T03:52:56;14.50;;;13.30;;
7166;SDS011;3625;51.762;14.320;2023-06-22T03:55:25;14.13;;;12.82;;
7166;SDS011;3625;51.762;14.320;2023-06-22T03:57:55;14.60;;;13.30;;
7166;SDS011;3625;51.762;14.320;2023-06-22T04:00:23;17.17;;;15.68;;
7166;SDS011;3625;51.762;14.320;2023-06-22T04:02:52;14.88;;;13.48;;
7166;SDS011;3625;51.762;14.320;2023-06-22T04:05:21;16.23;;;14.68;;
7166;SDS011;3625;51.762;14.320;2023-06-22T04:07:50;15.50;;;14.10;;
7166;SDS011;3625;51.762;14.320;2023-06-22T04:10:19;17.17;;;15.57;;
7166;SDS011;3625;51.762;14.320;2023-06-22T04:12:47;13.88;;;12.70;;
7166;SDS011;3625;51.762;14.320;2023-06-22T04:15:18;15.73;;;14.43;;
7166;SDS011;3625;51.762;14.320;2023-06-22T04:17:46;16.08;;;14.57;;
7166;SDS011;3625;51.762;14.320;2023-06-22T04:20:15;17.17;;;15.43;;
7166;SDS011;3625;51.762;14.320;2023-06-22T04:22:43;16.55;;;15.05;;
7166;SDS011;3625;51.762;14.320;2023-06-22T04:25:13;16.38;;;14.98;;
7166;SDS011;3625;51.762;14.320;2023-06-22T04:27:42;17.98;;;16.13;;
7166;SDS011;3625;51.762;14.320;2023-06-22T04:30:11;18.10;;;16.50;;
7166;SDS011;3625;51.762;14.320;2023-06-22T04:32:44;17.17;;;15.68;;
7166;SDS011;3625;51.762;14.320;2023-06-22T04:35:24;17.40;;;15.60;;
7166;SDS011;3625;51.762;14.320;2023-06-22T04:37:59;16.33;;;14.82;;
7166;SDS011;3625;51.762;14.320;2023-06-22T04:40:27;18.05;;;16.40;;
7166;SDS011;3625;51.762;14.320;2023-06-22T04:42:56;17.90;;;16.30;;
7166;SDS011;3625;51.762;14.320;2023-06-22T04:45:29;16.17;;;14.68;;
7166;SDS011;3625;51.762;14.320;2023-06-22T04:47:59;16.70;;;15.30;;
7166;SDS011;3625;51.762;14.320;2023-06-22T04:50:28;17.77;;;16.20;;
7166;SDS011;3625;51.762;14.320;2023-06-22T04:52:57;16.63;;;15.20;;
7166;SDS011;3625;51.762;14.320;2023-06-22T04:55:26;16.98;;;15.55;;
7166;SDS011;3625;51.762;14.320;2023-06-22T04:57:56;17.23;;;15.73;;
7166;SDS011;3625;51.762;14.320;2023-06-22T05:00:31;17.52;;;15.93;;
7166;SDS011;3625;51.762;14.320;2023-06-22T05:03:04;17.75;;;16.08;;
7166;SDS011;3625;51.762;14.320;2023-06-22T05:05:45;16.30;;;14.85;;
7166;SDS011;3625;51.762;14.320;2023-06-22T05:08:14;15.50;;;14.20;;
7166;SDS011;3625;51.762;14.320;2023-06-22T05:10:43;14.93;;;13.73;;
7166;SDS011;3625;51.762;14.320;2023-06-22T05:13:30;16.48;;;14.75;;
7166;SDS011;3625;51.762;14.320;2023-06-22T05:15:58;16.23;;;14.82;;
7166;SDS011;3625;51.762;14.320;2023-06-22T05:18:30;15.43;;;13.98;;
7166;SDS011;3625;51.762;14.320;2023-06-22T05:20:59;14.73;;;13.43;;
7166;SDS011;3625;51.762;14.320;2023-06-22T05:23:29;14.73;;;13.43;;
7166;SDS011;3625;51.762;14.320;2023-06-22T05:25:58;13.55;;;12.35;;
7166;SDS011;3625;51.762;14.320;2023-06-22T05:28:26;15.02;;;13.73;;
7166;SDS011;3625;51.762;14.320;2023-06-22T05:30:55;13.48;;;12.20;;
7166;SDS011;3625;51.762;14.320;2023-06-22T05:33:23;15.48;;;14.02;;
7166;SDS011;3625;51.762;14.320;2023-06-22T05:35:53;13.93;;;12.68;;
7166;SDS011;3625;51.762;14.320;2023-06-22T05:38:22;15.05;;;13.75;;
7166;SDS011;3625;51.762;14.320;2023-06-22T05:40:50;14.80;;;13.40;;
7166;SDS011;3625;51.762;14.320;2023-06-22T05:43:19;14.48;;;13.15;;
7166;SDS011;3625;51.762;14.320;2023-06-22T05:45:47;15.23;;;13.70;;
7166;SDS011;3625;51.762;14.320;2023-06-22T05:48:16;14.60;;;13.32;;
7166;SDS011;3625;51.762;14.320;2023-06-22T05:50:44;13.85;;;12.52;;
7166;SDS011;3625;51.762;14.320;2023-06-22T05:53:14;14.20;;;12.90;;
7166;SDS011;3625;51.762;14.320;2023-06-22T05:55:43;15.13;;;12.88;;
7166;SDS011;3625;51.762;14.320;2023-06-22T05:58:11;12.55;;;11.45;;
7166;SDS011;3625;51.762;14.320;2023-06-22T06:00:41;13.60;;;12.23;;
7166;SDS011;3625;51.762;14.320;2023-06-22T06:03:10;14.10;;;12.80;;
7166;SDS011;3625;51.762;14.320;2023-06-22T06:05:43;13.32;;;12.25;;
7166;SDS011;3625;51.762;14.320;2023-06-22T06:08:14;12.88;;;11.77;;
7166;SDS011;3625;51.762;14.320;2023-06-22T06:10:42;11.95;;;10.95;;
7166;SDS011;3625;51.762;14.320;2023-06-22T06:13:11;13.30;;;12.07;;
7166;SDS011;3625;51.762;14.320;2023-06-22T06:15:39;12.80;;;11.80;;
7166;SDS011;3625;51.762;14.320;2023-06-22T06:18:08;14.68;;;12.18;;
7166;SDS011;3625;51.762;14.320;2023-06-22T06:20:36;10.90;;;10.00;;
7166;SDS011;3625;51.762;14.320;2023-06-22T06:23:05;10.93;;;9.95;;
7166;SDS011;3625;51.762;14.320;2023-06-22T06:25:35;12.10;;;11.05;;
7166;SDS011;3625;51.762;14.320;2023-06-22T06:28:03;11.73;;;10.70;;
7166;SDS011;3625;51.762;14.320;2023-06-22T06:30:32;11.77;;;10.77;;
7166;SDS011;3625;51.762;14.320;2023-06-22T06:33:03;11.50;;;10.50;;
7166;SDS011;3625;51.762;14.320;2023-06-22T06:35:35;9.93;;;8.93;;
7166;SDS011;3625;51.762;14.320;2023-06-22T06:38:04;11.80;;;10.77;;
7166;SDS011;3625;51.762;14.320;2023-06-22T06:40:34;10.85;;;9.55;;
7166;SDS011;3625;51.762;14.320;2023-06-22T06:43:06;9.68;;;8.88;;
7166;SDS011;3625;51.762;14.320;2023-06-22T06:45:34;10.77;;;9.85;;
7166;SDS011;3625;51.762;14.320;2023-06-22T06:48:03;16.58;;;14.48;;
7166;SDS011;3625;51.762;14.320;2023-06-22T06:50:32;11.00;;;10.00;;
7166;SDS011;3625;51.762;14.320;2023-06-22T06:53:00;11.35;;;10.35;;
7166;SDS011;3625;51.762;14.320;2023-06-22T06:55:29;10.98;;;10.05;;
7166;SDS011;3625;51.762;14.320;2023-06-22T06:58:01;11.10;;;10.07;;
7166;SDS011;3625;51.762;14.320;2023-06-22T07:00:34;10.90;;;9.90;;
7166;SDS011;3625;51.762;14.320;2023-06-22T07:03:03;10.35;;;9.25;;
7166;SDS011;3625;51.762;14.320;2023-06-22T07:05:33;9.90;;;9.10;;
7166;SDS011;3625;51.762;14.320;2023-06-22T07:08:02;9.35;;;8.63;;
7166;SDS011;3625;51.762;14.320;2023-06-22T07:10:31;10.50;;;9.48;;
7166;SDS011;3625;51.762;14.320;2023-06-22T07:13:00;10.18;;;8.13;;
7166;SDS011;3625;51.762;14.320;2023-06-22T07:15:29;9.75;;;8.95;;
7166;SDS011;3625;51.762;14.320;2023-06-22T07:17:58;9.43;;;8.48;;
7166;SDS011;3625;51.762;14.320;2023-06-22T07:20:26;9.35;;;8.40;;
7166;SDS011;3625;51.762;14.320;2023-06-22T07:22:55;11.45;;;8.82;;
7166;SDS011;3625;51.762;14.320;2023-06-22T07:25:24;9.38;;;8.43;;
7166;SDS011;3625;51.762;14.320;2023-06-22T07:27:58;9.20;;;8.25;;
7166;SDS011;3625;51.762;14.320;2023-06-22T07:30:29;7.78;;;7.13;;
7166;SDS011;3625;51.762;14.320;2023-06-22T07:33:00;10.20;;;6.72;;
7166;SDS011;3625;51.762;14.320;2023-06-22T07:35:31;7.80;;;7.10;;
7166;SDS011;3625;51.762;14.320;2023-06-22T07:38:00;8.32;;;7.47;;
7166;SDS011;3625;51.762;14.320;2023-06-22T07:40:32;7.95;;;7.15;;
7166;SDS011;3625;51.762;14.320;2023-06-22T07:43:03;7.47;;;6.75;;
7166;SDS011;3625;51.762;14.320;2023-06-22T07:45:33;7.20;;;6.55;;
7166;SDS011;3625;51.762;14.320;2023-06-22T07:48:02;8.43;;;7.13;;
7166;SDS011;3625;51.762;14.320;2023-06-22T07:50:31;10.10;;;7.45;;
7166;SDS011;3625;51.762;14.320;2023-06-22T07:52:59;7.38;;;6.63;;
7166;SDS011;3625;51.762;14.320;2023-06-22T07:55:28;11.30;;;7.22;;
7166;SDS011;3625;51.762;14.320;2023-06-22T07:57:57;7.47;;;6.82;;
7166;SDS011;3625;51.762;14.320;2023-06-22T08:00:27;7.13;;;6.53;;
7166;SDS011;3625;51.762;14.320;2023-06-22T08:02:56;7.47;;;6.60;;
7166;SDS011;3625;51.762;14.320;2023-06-22T08:05:25;6.93;;;6.13;;
7166;SDS011;3625;51.762;14.320;2023-06-22T08:07:55;7.50;;;6.18;;
7166;SDS011;3625;51.762;14.320;2023-06-22T08:10:24;7.00;;;6.30;;
7166;SDS011;3625;51.762;14.320;2023-06-22T08:12:53;7.10;;;6.45;;
7166;SDS011;3625;51.762;14.320;2023-06-22T08:15:21;6.75;;;6.25;;
7166;SDS011;3625;51.762;14.320;2023-06-22T08:17:52;6.40;;;5.90;;
7166;SDS011;3625;51.762;14.320;2023-06-22T08:20:21;7.88;;;7.20;;
7166;SDS011;3625;51.762;14.320;2023-06-22T08:22:50;7.00;;;6.50;;
7166;SDS011;3625;51.762;14.320;2023-06-22T08:25:18;6.82;;;6.22;;
7166;SDS011;3625;51.762;14.320;2023-06-22T08:27:47;6.63;;;6.07;;
7166;SDS011;3625;51.762;14.320;2023-06-22T08:30:16;7.28;;;6.65;;
7166;SDS011;3625;51.762;14.320;2023-06-22T08:32:45;6.93;;;6.30;;
7166;SDS011;3625;51.762;14.320;2023-06-22T08:35:15;6.22;;;5.70;;
7166;SDS011;3625;51.762;14.320;2023-06-22T08:37:43;5.80;;;5.40;;
7166;SDS011;3625;51.762;14.320;2023-06-22T08:40:17;5.95;;;5.20;;
7166;SDS011;3625;51.762;14.320;2023-06-22T08:42:47;6.57;;;5.85;;
7166;SDS011;3625;51.762;14.320;2023-06-22T08:45:16;6.00;;;5.50;;
7166;SDS011;3625;51.762;14.320;2023-06-22T08:47:45;6.28;;;5.68;;
7166;SDS011;3625;51.762;14.320;2023-06-22T08:50:15;6.60;;;5.97;;
7166;SDS011;3625;51.762;14.320;2023-06-22T08:52:46;5.55;;;5.15;;
7166;SDS011;3625;51.762;14.320;2023-06-22T08:55:14;5.43;;;5.03;;
7166;SDS011;3625;51.762;14.320;2023-06-22T08:57:43;5.38;;;4.88;;
7166;SDS011;3625;51.762;14.320;2023-06-22T09:00:12;5.45;;;4.97;;
7166;SDS011;3625;51.762;14.320;2023-06-22T09:02:44;5.30;;;4.90;;
7166;SDS011;3625;51.762;14.320;2023-06-22T09:05:14;5.93;;;5.43;;
7166;SDS011;3625;51.762;14.320;2023-06-22T09:07:43;5.18;;;4.78;;
7166;SDS011;3625;51.762;14.320;2023-06-22T09:10:12;5.18;;;4.78;;
7166;SDS011;3625;51.762;14.320;2023-06-22T09:12:44;5.28;;;4.80;;
7166;SDS011;3625;51.762;14.320;2023-06-22T09:15:13;5.50;;;5.10;;
7166;SDS011;3625;51.762;14.320;2023-06-22T09:17:44;5.32;;;4.93;;
7166;SDS011;3625;51.762;14.320;2023-06-22T09:20:15;4.88;;;4.47;;
7166;SDS011;3625;51.762;14.320;2023-06-22T09:22:45;5.55;;;5.15;;
7166;SDS011;3625;51.762;14.320;2023-06-22T09:25:14;5.43;;;4.90;;
7166;SDS011;3625;51.762;14.320;2023-06-22T09:27:43;5.70;;;4.85;;
7166;SDS011;3625;51.762;14.320;2023-06-22T09:30:11;5.22;;;4.82;;
7166;SDS011;3625;51.762;14.320;2023-06-22T09:32:42;5.28;;;4.78;;
7166;SDS011;3625;51.762;14.320;2023-06-22T09:35:11;5.03;;;4.63;;
7166;SDS011;3625;51.762;14.320;2023-06-22T09:37:41;4.25;;;3.95;;
7166;SDS011;3625;51.762;14.320;2023-06-22T09:40:11;4.95;;;4.55;;
7166;SDS011;3625;51.762;14.320;2023-06-22T09:42:43;5.32;;;4.93;;
7166;SDS011;3625;51.762;14.320;2023-06-22T09:45:12;5.35;;;4.95;;
7166;SDS011;3625;51.762;14.320;2023-06-22T09:47:41;5.90;;;5.40;;
7166;SDS011;3625;51.762;14.320;2023-06-22T09:50:09;5.15;;;4.75;;
7166;SDS011;3625;51.762;14.320;2023-06-22T09:52:38;5.30;;;4.80;;
7166;SDS011;3625;51.762;14.320;2023-06-22T09:55:15;5.70;;;5.20;;
7166;SDS011;3625;51.762;14.320;2023-06-22T09:57:44;4.68;;;4.28;;
7166;SDS011;3625;51.762;14.320;2023-06-22T10:00:13;5.45;;;4.95;;
7166;SDS011;3625;51.762;14.320;2023-06-22T10:02:46;5.00;;;4.60;;
7166;SDS011;3625;51.762;14.320;2023-06-22T10:05:15;5.30;;;4.80;;
7166;SDS011;3625;51.762;14.320;2023-06-22T10:07:43;5.30;;;4.90;;
7166;SDS011;3625;51.762;14.320;2023-06-22T10:10:12;5.20;;;4.80;;
7166;SDS011;3625;51.762;14.320;2023-06-22T10:12:44;5.20;;;4.80;;
7166;SDS011;3625;51.762;14.320;2023-06-22T10:15:15;5.80;;;5.20;;
7166;SDS011;3625;51.762;14.320;2023-06-22T10:17:44;6.03;;;5.32;;
7166;SDS011;3625;51.762;14.320;2023-06-22T10:20:13;4.68;;;4.28;;
7166;SDS011;3625;51.762;14.320;2023-06-22T10:22:44;5.85;;;5.35;;
7166;SDS011;3625;51.762;14.320;2023-06-22T10:25:13;5.97;;;4.97;;
7166;SDS011;3625;51.762;14.320;2023-06-22T10:27:43;5.13;;;4.75;;
7166;SDS011;3625;51.762;14.320;2023-06-22T10:30:12;5.55;;;5.07;;
7166;SDS011;3625;51.762;14.320;2023-06-22T10:32:42;4.82;;;4.43;;
7166;SDS011;3625;51.762;14.320;2023-06-22T10:35:11;5.45;;;5.05;;
7166;SDS011;3625;51.762;14.320;2023-06-22T10:37:42;5.28;;;4.88;;
7166;SDS011;3625;51.762;14.320;2023-06-22T10:40:12;5.53;;;5.03;;
7166;SDS011;3625;51.762;14.320;2023-06-22T10:42:45;5.55;;;5.15;;
7166;SDS011;3625;51.762;14.320;2023-06-22T10:45:13;5.32;;;4.93;;
7166;SDS011;3625;51.762;14.320;2023-06-22T10:47:42;5.72;;;5.22;;
7166;SDS011;3625;51.762;14.320;2023-06-22T10:50:10;5.45;;;5.05;;
7166;SDS011;3625;51.762;14.320;2023-06-22T10:52:39;4.78;;;4.47;;
7166;SDS011;3625;51.762;14.320;2023-06-22T10:55:09;5.95;;;4.90;;
7166;SDS011;3625;51.762;14.320;2023-06-22T10:57:38;5.38;;;4.97;;
7166;SDS011;3625;51.762;14.320;2023-06-22T11:00:13;6.00;;;5.35;;
7166;SDS011;3625;51.762;14.320;2023-06-22T11:02:42;5.32;;;4.88;;
7166;SDS011;3625;51.762;14.320;2023-06-22T11:05:11;5.95;;;5.55;;
7166;SDS011;3625;51.762;14.320;2023-06-22T11:07:41;5.90;;;5.40;;
7166;SDS011;3625;51.762;14.320;2023-06-22T11:10:12;5.97;;;5.47;;
7166;SDS011;3625;51.762;14.320;2023-06-22T11:12:41;5.55;;;5.15;;
7166;SDS011;3625;51.762;14.320;2023-06-22T11:15:11;6.88;;;5.57;;
7166;SDS011;3625;51.762;14.320;2023-06-22T11:17:40;5.40;;;5.00;;
7166;SDS011;3625;51.762;14.320;2023-06-22T11:20:08;5.78;;;5.35;;
7166;SDS011;3625;51.762;14.320;2023-06-22T11:22:38;6.05;;;5.57;;
7166;SDS011;3625;51.762;14.320;2023-06-22T11:25:09;6.55;;;5.45;;
7166;SDS011;3625;51.762;14.320;2023-06-22T11:27:39;5.28;;;4.75;;
7166;SDS011;3625;51.762;14.320;2023-06-22T11:30:08;6.00;;;5.60;;
7166;SDS011;3625;51.762;14.320;2023-06-22T11:32:38;5.53;;;5.05;;
7166;SDS011;3625;51.762;14.320;2023-06-22T11:35:07;5.75;;;5.35;;
7166;SDS011;3625;51.762;14.320;2023-06-22T11:37:37;5.60;;;5.10;;
7166;SDS011;3625;51.762;14.320;2023-06-22T11:40:07;5.63;;;5.22;;
7166;SDS011;3625;51.762;14.320;2023-06-22T11:42:37;5.90;;;5.40;;
7166;SDS011;3625;51.762;14.320;2023-06-22T11:45:07;5.18;;;4.53;;
7166;SDS011;3625;51.762;14.320;2023-06-22T11:47:36;5.88;;;5.47;;
7166;SDS011;3625;51.762;14.320;2023-06-22T11:50:08;6.28;;;5.75;;
7166;SDS011;3625;51.762;14.320;2023-06-22T11:52:38;5.95;;;5.45;;
7166;SDS011;3625;51.762;14.320;2023-06-22T11:55:07;6.35;;;5.35;;
7166;SDS011;3625;51.762;14.320;2023-06-22T11:57:36;5.55;;;5.10;;
7166;SDS011;3625;51.762;14.320;2023-06-22T12:00:22;6.70;;;5.50;;
7166;SDS011;3625;51.762;14.320;2023-06-22T12:02:55;5.03;;;4.70;;
7166;SDS011;3625;51.762;14.320;2023-06-22T12:05:28;5.57;;;5.18;;
7166;SDS011;3625;51.762;14.320;2023-06-22T12:07:56;6.45;;;5.95;;
7166;SDS011;3625;51.762;14.320;2023-06-22T12:10:25;5.90;;;5.47;;
7166;SDS011;3625;51.762;14.320;2023-06-22T12:12:55;6.18;;;5.55;;
7166;SDS011;3625;51.762;14.320;2023-06-22T12:15:26;6.07;;;5.57;;
7166;SDS011;3625;51.762;14.320;2023-06-22T12:17:55;5.47;;;4.97;;
7166;SDS011;3625;51.762;14.320;2023-06-22T12:20:24;5.57;;;5.13;;
7166;SDS011;3625;51.762;14.320;2023-06-22T12:22:55;5.75;;;5.25;;
7166;SDS011;3625;51.762;14.320;2023-06-22T12:25:24;6.15;;;5.65;;
7166;SDS011;3625;51.762;14.320;2023-06-22T12:27:53;6.70;;;5.20;;
7166;SDS011;3625;51.762;14.320;2023-06-22T12:30:22;5.60;;;5.10;;
7166;SDS011;3625;51.762;14.320;2023-06-22T12:32:51;6.32;;;5.72;;
7166;SDS011;3625;51.762;14.320;2023-06-22T12:35:22;5.75;;;5.25;;
7166;SDS011;3625;51.762;14.320;2023-06-22T12:37:51;5.32;;;4.90;;
7166;SDS011;3625;51.762;14.320;2023-06-22T12:40:22;6.07;;;5.32;;
7166;SDS011;3625;51.762;14.320;2023-06-22T12:42:51;5.78;;;5.28;;
7166;SDS011;3625;51.762;14.320;2023-06-22T12:45:19;6.07;;;5.55;;
7166;SDS011;3625;51.762;14.320;2023-06-22T12:47:48;5.70;;;5.30;;
7166;SDS011;3625;51.762;14.320;2023-06-22T12:50:18;5.38;;;4.88;;
7166;SDS011;3625;51.762;14.320;2023-06-22T12:52:48;5.47;;;5.07;;
7166;SDS011;3625;51.762;14.320;2023-06-22T12:55:17;5.22;;;4.82;;
7166;SDS011;3625;51.762;14.320;2023-06-22T12:57:47;5.88;;;5.38;;
7166;SDS011;3625;51.762;14.320;2023-06-22T13:00:16;5.80;;;5.30;;
7166;SDS011;3625;51.762;14.320;2023-06-22T13:02:46;5.20;;;4.80;;
7166;SDS011;3625;51.762;14.320;2023-06-22T13:05:15;6.28;;;5.70;;
7166;SDS011;3625;51.762;14.320;2023-06-22T13:07:44;5.85;;;5.40;;
7166;SDS011;3625;51.762;14.320;2023-06-22T13:10:13;6.07;;;5.47;;
7166;SDS011;3625;51.762;14.320;2023-06-22T13:12:42;5.35;;;4.85;;
7166;SDS011;3625;51.762;14.320;2023-06-22T13:15:12;6.22;;;5.63;;
7166;SDS011;3625;51.762;14.320;2023-06-22T13:17:41;6.28;;;5.78;;
7166;SDS011;3625;51.762;14.320;2023-06-22T13:20:10;5.63;;;5.13;;
7166;SDS011;3625;51.762;14.320;2023-06-22T13:22:39;5.68;;;5.18;;
7166;SDS011;3625;51.762;14.320;2023-06-22T13:25:23;5.72;;;5.22;;
7166;SDS011;3625;51.762;14.320;2023-06-22T13:27:53;5.88;;;5.38;;
7166;SDS011;3625;51.762;14.320;2023-06-22T13:30:23;5.88;;;5.38;;
7166;SDS011;3625;51.762;14.320;2023-06-22T13:32:52;6.60;;;5.97;;
7166;SDS011;3625;51.762;14.320;2023-06-22T13:35:21;5.97;;;5.47;;
7166;SDS011;3625;51.762;14.320;2023-06-22T13:37:50;5.63;;;5.13;;
7166;SDS011;3625;51.762;14.320;2023-06-22T13:40:19;5.90;;;5.43;;
7166;SDS011;3625;51.762;14.320;2023-06-22T13:42:47;6.55;;;5.95;;
7166;SDS011;3625;51.762;14.320;2023-06-22T13:45:16;6.53;;;6.03;;
7166;SDS011;3625;51.762;14.320;2023-06-22T13:47:47;6.13;;;5.63;;
7166;SDS011;3625;51.762;14.320;2023-06-22T13:50:16;5.95;;;5.45;;
7166;SDS011;3625;51.762;14.320;2023-06-22T13:52:45;5.28;;;4.78;;
7166;SDS011;3625;51.762;14.320;2023-06-22T13:55:13;6.55;;;5.88;;
7166;SDS011;3625;51.762;14.320;2023-06-22T13:57:42;5.88;;;5.28;;
7166;SDS011;3625;51.762;14.320;2023-06-22T14:00:11;6.38;;;5.88;;
7166;SDS011;3625;51.762;14.320;2023-06-22T14:02:41;8.40;;;5.95;;
7166;SDS011;3625;51.762;14.320;2023-06-22T14:05:11;6.75;;;6.25;;
7166;SDS011;3625;51.762;14.320;2023-06-22T14:07:40;5.95;;;5.50;;
7166;SDS011;3625;51.762;14.320;2023-06-22T14:10:09;6.55;;;5.95;;
7166;SDS011;3625;51.762;14.320;2023-06-22T14:12:38;5.60;;;5.10;;
7166;SDS011;3625;51.762;14.320;2023-06-22T14:15:06;6.88;;;6.20;;
7166;SDS011;3625;51.762;14.320;2023-06-22T14:17:35;6.90;;;6.20;;
7166;SDS011;3625;51.762;14.320;2023-06-22T14:20:05;6.55;;;5.97;;
7166;SDS011;3625;51.762;14.320;2023-06-22T14:22:36;6.47;;;5.97;;
7166;SDS011;3625;51.762;14.320;2023-06-22T14:25:06;8.23;;;6.32;;
7166;SDS011;3625;51.762;14.320;2023-06-22T14:27:35;6.10;;;5.70;;
7166;SDS011;3625;51.762;14.320;2023-06-22T14:30:04;6.88;;;6.20;;
7166;SDS011;3625;51.762;14.320;2023-06-22T14:32:34;6.68;;;6.18;;
7166;SDS011;3625;51.762;14.320;2023-06-22T14:35:03;6.53;;;5.90;;
7166;SDS011;3625;51.762;14.320;2023-06-22T14:37:32;6.43;;;5.80;;
7166;SDS011;3625;51.762;14.320;2023-06-22T14:40:02;8.73;;;6.68;;
7166;SDS011;3625;51.762;14.320;2023-06-22T14:42:32;6.72;;;6.03;;
7166;SDS011;3625;51.762;14.320;2023-06-22T14:45:00;6.63;;;6.05;;
7166;SDS011;3625;51.762;14.320;2023-06-22T14:47:28;6.22;;;5.65;;
7166;SDS011;3625;51.762;14.320;2023-06-22T14:49:57;6.60;;;6.00;;
7166;SDS011;3625;51.762;14.320;2023-06-22T14:52:26;7.05;;;6.50;;
7166;SDS011;3625;51.762;14.320;2023-06-22T14:54:55;8.85;;;6.47;;
7166;SDS011;3625;51.762;14.320;2023-06-22T14:57:25;6.05;;;5.55;;
7166;SDS011;3625;51.762;14.320;2023-06-22T14:59:53;7.70;;;6.47;;
7166;SDS011;3625;51.762;14.320;2023-06-22T15:02:22;6.65;;;6.05;;
7166;SDS011;3625;51.762;14.320;2023-06-22T15:04:50;6.72;;;6.22;;
7166;SDS011;3625;51.762;14.320;2023-06-22T15:07:19;7.18;;;6.47;;
7166;SDS011;3625;51.762;14.320;2023-06-22T15:09:48;6.35;;;5.78;;
7166;SDS011;3625;51.762;14.320;2023-06-22T15:12:16;7.00;;;6.40;;
7166;SDS011;3625;51.762;14.320;2023-06-22T15:14:48;6.75;;;6.15;;
7166;SDS011;3625;51.762;14.320;2023-06-22T15:17:16;6.70;;;6.20;;
7166;SDS011;3625;51.762;14.320;2023-06-22T15:19:45;7.00;;;6.20;;
7166;SDS011;3625;51.762;14.320;2023-06-22T15:22:13;6.78;;;6.28;;
7166;SDS011;3625;51.762;14.320;2023-06-22T15:24:44;7.15;;;6.55;;
7166;SDS011;3625;51.762;14.320;2023-06-22T15:27:14;6.70;;;6.15;;
7166;SDS011;3625;51.762;14.320;2023-06-22T15:29:43;7.13;;;6.43;;
7166;SDS011;3625;51.762;14.320;2023-06-22T15:32:12;6.68;;;6.07;;
7166;SDS011;3625;51.762;14.320;2023-06-22T15:34:41;6.75;;;6.20;;
7166;SDS011;3625;51.762;14.320;2023-06-22T15:37:09;6.40;;;5.90;;
7166;SDS011;3625;51.762;14.320;2023-06-22T15:39:39;6.70;;;5.93;;
7166;SDS011;3625;51.762;14.320;2023-06-22T15:42:07;5.78;;;5.28;;
7166;SDS011;3625;51.762;14.320;2023-06-22T15:44:36;5.88;;;5.38;;
7166;SDS011;3625;51.762;14.320;2023-06-22T15:47:05;9.70;;;6.35;;
7166;SDS011;3625;51.762;14.320;2023-06-22T15:49:35;6.40;;;5.88;;
7166;SDS011;3625;51.762;14.320;2023-06-22T15:52:05;6.63;;;6.05;;
7166;SDS011;3625;51.762;14.320;2023-06-22T15:54:34;7.28;;;6.70;;
7166;SDS011;3625;51.762;14.320;2023-06-22T15:57:03;7.25;;;6.65;;
7166;SDS011;3625;51.762;14.320;2023-06-22T15:59:32;7.15;;;6.57;;
7166;SDS011;3625;51.762;14.320;2023-06-22T16:02:00;6.68;;;6.07;;
7166;SDS011;3625;51.762;14.320;2023-06-22T16:04:29;6.32;;;5.82;;
7166;SDS011;3625;51.762;14.320;2023-06-22T16:06:59;6.53;;;5.90;;
7166;SDS011;3625;51.762;14.320;2023-06-22T16:09:27;6.05;;;5.43;;
7166;SDS011;3625;51.762;14.320;2023-06-22T16:11:57;6.60;;;6.10;;
7166;SDS011;3625;51.762;14.320;2023-06-22T16:14:26;5.93;;;5.40;;
7166;SDS011;3625;51.762;14.320;2023-06-22T16:16:54;6.10;;;5.50;;
7166;SDS011;3625;51.762;14.320;2023-06-22T16:19:23;6.20;;;5.70;;
7166;SDS011;3625;51.762;14.320;2023-06-22T16:21:51;6.95;;;6.35;;
7166;SDS011;3625;51.762;14.320;2023-06-22T16:24:22;7.72;;;6.22;;
7166;SDS011;3625;51.762;14.320;2023-06-22T16:26:51;6.03;;;5.50;;
7166;SDS011;3625;51.762;14.320;2023-06-22T16:29:21;6.60;;;6.10;;
7166;SDS011;3625;51.762;14.320;2023-06-22T16:31:50;6.82;;;6.22;;
7166;SDS011;3625;51.762;14.320;2023-06-22T16:34:18;7.07;;;6.47;;
7166;SDS011;3625;51.762;14.320;2023-06-22T16:36:47;6.82;;;6.32;;
7166;SDS011;3625;51.762;14.320;2023-06-22T16:39:18;6.95;;;6.35;;
7166;SDS011;3625;51.762;14.320;2023-06-22T16:41:48;6.78;;;6.13;;
7166;SDS011;3625;51.762;14.320;2023-06-22T16:44:17;5.88;;;5.47;;
7166;SDS011;3625;51.762;14.320;2023-06-22T16:46:45;6.95;;;6.32;;
7166;SDS011;3625;51.762;14.320;2023-06-22T16:49:14;6.75;;;6.15;;
7166;SDS011;3625;51.762;14.320;2023-06-22T16:51:42;6.35;;;5.82;;
7166;SDS011;3625;51.762;14.320;2023-06-22T16:54:11;7.68;;;6.22;;
7166;SDS011;3625;51.762;14.320;2023-06-22T16:56:41;5.97;;;5.47;;
7166;SDS011;3625;51.762;14.320;2023-06-22T16:59:13;6.80;;;6.25;;
7166;SDS011;3625;51.762;14.320;2023-06-22T17:01:45;6.88;;;6.28;;
7166;SDS011;3625;51.762;14.320;2023-06-22T17:04:20;6.13;;;5.63;;
7166;SDS011;3625;51.762;14.320;2023-06-22T17:06:53;6.90;;;6.20;;
7166;SDS011;3625;51.762;14.320;2023-06-22T17:09:26;8.98;;;6.35;;